Time;durP1;ratioP1;P1;durP2;ratioP2;P2;SDS_P1;SDS_P2;PMS_P1;PMS_P2;Temp;Humidity;BMP_temperature;BMP_pressure;BME280_temperature;BME280_humidity;BME280_pressure;Samples;Min_cycle;Max_cycle;Signal;HPM_P1;HPM_P2
2021/05/11 00:01:54;;;;;;;0.70;0.43;;;25.50;75.80;;;;;;4999209;28;20026;-69
2021/05/11 00:04:22;;;;;;;1.83;0.60;;;25.80;73.40;;;;;;4996837;28;20056;-71
2021/05/11 00:06:49;;;;;;;1.25;0.77;;;25.30;73.80;;;;;;4998258;28;20030;-69
2021/05/11 00:09:16;;;;;;;0.90;0.70;;;24.90;75.40;;;;;;5001327;28;20030;-69
2021/05/11 00:11:44;;;;;;;1.25;0.63;;;24.50;74.20;;;;;;4998387;28;20504;-72
2021/05/11 00:14:11;;;;;;;1.40;0.70;;;24.00;75.60;;;;;;4996994;28;20019;-70
2021/05/11 00:16:40;;;;;;;0.75;0.60;;;23.80;79.80;;;;;;5002493;28;20019;-70
2021/05/11 00:19:11;;;;;;;1.42;0.73;;;24.00;78.60;;;;;;5002893;28;20041;-70
2021/05/11 00:21:38;;;;;;;1.58;0.80;;;24.30;75.90;;;;;;4995900;28;20038;-72
2021/05/11 00:24:06;;;;;;;2.38;0.60;;;24.90;77.80;;;;;;4994435;28;20063;-72
2021/05/11 00:26:34;;;;;;;1.33;0.60;;;25.00;76.90;;;;;;4999651;28;20022;-71
2021/05/11 00:29:02;;;;;;;0.98;0.63;;;25.00;75.50;;;;;;4999776;28;20033;-72
2021/05/11 00:31:29;;;;;;;0.68;0.50;;;24.40;75.00;;;;;;5004835;28;20038;-70
2021/05/11 00:33:56;;;;;;;1.55;0.55;;;23.40;79.30;;;;;;4999292;28;20102;-69
2021/05/11 00:36:25;;;;;;;2.42;0.40;;;22.90;79.80;;;;;;4999838;28;20061;-70
2021/05/11 00:38:52;;;;;;;1.75;0.50;;;22.50;81.30;;;;;;4997369;28;20137;-70
2021/05/11 00:41:20;;;;;;;0.65;0.50;;;22.00;81.00;;;;;;5001820;28;20113;-71
2021/05/11 00:43:47;;;;;;;0.80;0.60;;;21.70;84.80;;;;;;4998952;28;20084;-69
2021/05/11 00:46:16;;;;;;;2.50;0.90;;;22.30;84.40;;;;;;4989921;28;20041;-71
2021/05/11 00:48:43;;;;;;;0.40;0.40;;;23.20;80.40;;;;;;4992137;28;20049;-70
2021/05/11 00:51:12;;;;;;;1.77;0.40;;;23.80;77.20;;;;;;4994581;28;20030;-70
2021/05/11 00:53:42;;;;;;;1.48;0.47;;;24.20;75.60;;;;;;4996614;28;20026;-71
2021/05/11 00:56:11;;;;;;;0.85;0.50;;;24.00;76.80;;;;;;5002249;28;20057;-69
2021/05/11 00:58:39;;;;;;;1.45;0.30;;;24.00;77.30;;;;;;4996943;28;20377;-71
2021/05/11 01:01:07;;;;;;;0.57;0.28;;;23.80;77.10;;;;;;5002143;28;20030;-71
2021/05/11 01:03:34;;;;;;;2.58;0.50;;;23.20;79.30;;;;;;4998969;28;20033;-71
2021/05/11 01:06:01;;;;;;;1.13;0.40;;;22.90;80.10;;;;;;4999420;28;20031;-70
2021/05/11 01:08:29;;;;;;;0.68;0.40;;;23.20;80.40;;;;;;4997434;28;20026;-70
2021/05/11 01:10:56;;;;;;;1.55;0.50;;;24.10;79.40;;;;;;4994772;28;21420;-70
2021/05/11 01:13:24;;;;;;;0.95;0.50;;;24.90;78.00;;;;;;4992110;28;20030;-71
2021/05/11 01:15:52;;;;;;;2.22;0.80;;;25.20;73.60;;;;;;4996509;28;20840;-70
2021/05/11 01:18:32;;;;;;;0.98;0.20;;;25.60;72.70;;;;;;5000010;28;20531;-71
2021/05/11 01:21:15;;;;;;;1.38;0.50;;;25.60;76.60;;;;;;4995532;28;20037;-69
2021/05/11 01:26:32;;;;;;;1.75;0.30;;;25.70;72.60;;;;;;4994852;28;20056;-70
2021/05/11 01:29:24;;;;;;;1.02;0.50;;;25.70;75.10;;;;;;4995530;28;20061;-68
2021/05/11 01:48:33;;;;;;;0.85;0.40;;;27.00;67.10;;;;;;4996766;28;20033;-72
2021/05/11 01:53:54;;;;;;;1.65;0.20;;;26.90;67.20;;;;;;4997556;28;20033;-70
2021/05/11 01:56:59;;;;;;;1.13;0.60;;;27.40;66.10;;;;;;4991617;28;20064;-70
2021/05/11 02:11:01;;;;;;;0.15;0.10;;;27.10;64.30;;;;;;4998439;28;20067;-71
2021/05/11 02:24:29;;;;;;;0.20;0.20;;;24.60;70.00;;;;;;4994392;28;20508;-71
2021/05/11 02:26:56;;;;;;;0.38;0.20;;;25.50;65.70;;;;;;4994794;28;20061;-71
2021/05/11 02:29:24;;;;;;;0.90;0.20;;;25.40;67.20;;;;;;4993339;28;20489;-70
2021/05/11 02:31:51;;;;;;;0.98;0.47;;;25.40;67.70;;;;;;4993638;28;20025;-70
2021/05/11 02:34:18;;;;;;;0.40;0.32;;;26.00;66.10;;;;;;4994681;28;20470;-72
2021/05/11 02:36:46;;;;;;;1.45;0.30;;;25.80;66.30;;;;;;4999998;28;20539;-70
2021/05/11 02:39:13;;;;;;;0.30;0.30;;;25.10;67.90;;;;;;5012133;28;20125;-70
2021/05/11 02:41:43;;;;;;;0.43;0.22;;;24.70;68.70;;;;;;4999036;28;20088;-71
2021/05/11 02:44:11;;;;;;;0.77;0.30;;;24.20;67.70;;;;;;4995487;28;20034;-71
2021/05/11 02:46:38;;;;;;;0.75;0.22;;;23.80;67.30;;;;;;4995640;28;20054;-73
2021/05/11 02:49:07;;;;;;;0.60;0.43;;;23.80;68.80;;;;;;4999735;28;20041;-71
2021/05/11 02:51:34;;;;;;;2.25;0.43;;;24.10;69.80;;;;;;4995945;28;20029;-73
2021/05/11 02:54:01;;;;;;;0.43;0.30;;;24.60;68.80;;;;;;4998226;28;20034;-72
2021/05/11 02:56:29;;;;;;;0.20;0.20;;;25.40;70.20;;;;;;4997683;28;20072;-71
2021/05/11 02:58:56;;;;;;;0.15;0.10;;;25.90;66.80;;;;;;4998696;28;20397;-73
2021/05/11 03:01:24;;;;;;;0.25;0.10;;;25.70;67.30;;;;;;4999941;28;20116;-72
2021/05/11 03:03:51;;;;;;;1.55;0.20;;;26.20;65.60;;;;;;4989350;28;20515;-72
2021/05/11 03:06:19;;;;;;;1.00;0.20;;;26.40;64.30;;;;;;4980027;28;20470;-70
2021/05/11 03:08:46;;;;;;;1.00;0.25;;;25.70;65.80;;;;;;4994724;28;20507;-71
2021/05/11 03:11:13;;;;;;;1.55;0.20;;;25.40;65.20;;;;;;4986618;28;20030;-71
2021/05/11 03:13:41;;;;;;;0.40;0.20;;;25.70;65.20;;;;;;4989706;28;20129;-71
2021/05/11 03:16:08;;;;;;;0.10;0.10;;;25.50;64.50;;;;;;4997773;28;20031;-72
2021/05/11 03:18:35;;;;;;;0.10;0.10;;;25.40;64.00;;;;;;4989095;28;20029;-70
2021/05/11 03:21:03;;;;;;;0.28;0.20;;;25.30;65.10;;;;;;4998077;28;20049;-71
2021/05/11 03:23:30;;;;;;;0.90;0.20;;;25.50;64.40;;;;;;5000756;28;20490;-71
2021/05/11 03:25:58;;;;;;;0.80;0.20;;;25.30;64.20;;;;;;4995289;28;20525;-70
2021/05/11 03:28:25;;;;;;;2.28;0.40;;;24.90;63.40;;;;;;4997695;28;21635;-71
2021/05/11 03:30:52;;;;;;;1.70;0.20;;;23.80;64.50;;;;;;4994379;28;20030;-69
2021/05/11 03:33:20;;;;;;;0.40;0.10;;;23.40;66.10;;;;;;4994527;28;20046;-71
2021/05/11 03:35:47;;;;;;;0.20;0.20;;;23.00;67.50;;;;;;5001700;28;20389;-71
2021/05/11 03:38:15;;;;;;;0.65;0.10;;;22.80;68.10;;;;;;4996158;28;20033;-70
2021/05/11 03:40:42;;;;;;;4.35;0.20;;;23.00;68.30;;;;;;5004822;28;20495;-71
2021/05/11 03:43:13;;;;;;;1.27;0.25;;;23.20;66.40;;;;;;4998351;28;20037;-72
2021/05/11 03:45:45;;;;;;;0.82;0.30;;;23.10;74.00;;;;;;4998844;28;20046;-71
2021/05/11 03:48:13;;;;;;;0.47;0.20;;;22.90;78.20;;;;;;5002264;28;20409;-72
2021/05/11 03:50:40;;;;;;;0.30;0.20;;;22.70;80.10;;;;;;5006763;28;20072;-71
2021/05/11 03:53:07;;;;;;;0.73;0.10;;;22.30;78.40;;;;;;5001831;28;20018;-74
2021/05/11 03:55:35;;;;;;;0.38;0.10;;;22.00;78.10;;;;;;5000904;28;20022;-74
2021/05/11 03:58:02;;;;;;;5.10;0.30;;;21.70;79.90;;;;;;4998009;28;20025;-75
2021/05/11 04:00:30;;;;;;;0.95;0.20;;;21.50;81.60;;;;;;4995156;28;20137;-77
2021/05/11 04:02:57;;;;;;;1.30;0.20;;;21.30;82.30;;;;;;4997558;28;20026;-75
2021/05/11 04:05:25;;;;;;;1.42;0.10;;;21.30;82.90;;;;;;4997616;28;20101;-74
2021/05/11 04:07:56;;;;;;;0.17;0.10;;;21.30;81.60;;;;;;4993208;28;20547;-76
2021/05/11 04:10:36;;;;;;;1.65;0.20;;;21.40;82.60;;;;;;4994698;28;20117;-76
2021/05/11 04:18:32;;;;;;;0.20;0.10;;;21.30;83.40;;;;;;5002273;28;20397;-76
2021/05/11 04:20:59;;;;;;;0.30;0.25;;;21.50;83.20;;;;;;4997918;28;20291;-76
2021/05/11 04:23:27;;;;;;;1.60;0.73;;;21.40;82.90;;;;;;4998765;28;20057;-76
2021/05/11 04:25:54;;;;;;;1.55;0.20;;;21.50;82.50;;;;;;5000280;28;20036;-77
2021/05/11 04:28:21;;;;;;;5.47;0.20;;;21.50;82.10;;;;;;4998191;28;20030;-77
2021/05/11 04:30:49;;;;;;;1.33;0.30;;;21.60;81.70;;;;;;4996548;28;20033;-76
2021/05/11 04:33:16;;;;;;;2.53;0.30;;;21.70;82.70;;;;;;4992500;28;20026;-77
2021/05/11 04:35:43;;;;;;;0.57;0.20;;;21.70;82.50;;;;;;5001904;28;20373;-77
2021/05/11 04:38:11;;;;;;;2.15;0.30;;;21.70;83.30;;;;;;4995056;28;20583;-76
2021/05/11 04:40:38;;;;;;;0.30;0.20;;;21.60;83.70;;;;;;4998654;28;20093;-76
2021/05/11 04:43:06;;;;;;;1.08;0.75;;;21.50;84.00;;;;;;5003923;28;20037;-75
2021/05/11 04:45:34;;;;;;;0.57;0.20;;;21.50;85.20;;;;;;4996629;28;20076;-76
2021/05/11 04:48:02;;;;;;;0.10;0.10;;;21.50;85.30;;;;;;4997988;28;20029;-73
2021/05/11 04:50:30;;;;;;;0.98;0.20;;;21.50;86.90;;;;;;5001340;28;20762;-73
2021/05/11 04:53:00;;;;;;;1.63;0.47;;;21.50;83.70;;;;;;4995098;28;20061;-75
2021/05/11 04:55:28;;;;;;;0.38;0.10;;;21.60;83.00;;;;;;4995356;28;20030;-73
2021/05/11 04:57:55;;;;;;;0.57;0.20;;;21.30;83.00;;;;;;4994267;28;20108;-74
2021/05/11 05:00:23;;;;;;;0.93;0.47;;;21.30;85.10;;;;;;4992662;28;20153;-74
2021/05/11 05:02:53;;;;;;;1.75;0.25;;;21.30;84.30;;;;;;4997604;28;20539;-75
2021/05/11 05:05:21;;;;;;;4.35;0.20;;;21.20;85.60;;;;;;5001583;28;20037;-74
2021/05/11 05:07:48;;;;;;;2.10;0.40;;;21.00;84.90;;;;;;4997992;28;20495;-75
2021/05/11 05:10:16;;;;;;;1.33;0.20;;;20.80;86.90;;;;;;4998580;28;20524;-75
2021/05/11 05:12:46;;;;;;;2.70;0.20;;;20.60;89.40;;;;;;4996644;28;20366;-74
2021/05/11 05:15:14;;;;;;;1.70;0.30;;;20.40;90.50;;;;;;4994238;28;20047;-75
2021/05/11 05:17:42;;;;;;;0.73;0.17;;;20.20;91.50;;;;;;4995755;28;20235;-75
2021/05/11 05:20:11;;;;;;;1.08;0.20;;;20.00;91.10;;;;;;4994775;28;20046;-76
2021/05/11 05:22:38;;;;;;;1.75;0.50;;;20.00;91.80;;;;;;4993402;28;20777;-76
2021/05/11 05:25:12;;;;;;;1.02;0.40;;;19.90;92.20;;;;;;5000652;28;20566;-79
2021/05/11 05:27:57;;;;;;;0.50;0.10;;;19.90;92.70;;;;;;4993411;28;20627;-77
2021/05/11 05:30:25;;;;;;;0.32;0.10;;;19.90;92.10;;;;;;4993098;28;20088;-79
2021/05/11 05:33:01;;;;;;;1.15;0.40;;;19.80;92.30;;;;;;4997970;28;20022;-79
2021/05/11 05:35:31;;;;;;;;;;;19.80;92.30;;;;;;4996855;28;20025;-77
2021/05/11 05:37:58;;;;;;;1.15;0.30;;;19.80;92.50;;;;;;4998109;28;19913;-78
2021/05/11 05:40:26;;;;;;;0.47;0.20;;;19.80;92.20;;;;;;4997396;28;20034;-78
2021/05/11 05:42:54;;;;;;;0.10;0.05;;;19.90;93.30;;;;;;4996300;28;20018;-78
2021/05/11 05:45:21;;;;;;;0.60;0.20;;;19.80;92.90;;;;;;4988376;28;20030;-78
2021/05/11 05:47:52;;;;;;;0.50;0.20;;;19.70;92.00;;;;;;4999660;28;20018;-78
2021/05/11 05:50:26;;;;;;;0.32;0.20;;;19.70;91.80;;;;;;4998770;28;20045;-78
2021/05/11 05:53:04;;;;;;;0.10;0.10;;;19.80;91.80;;;;;;4994371;28;20149;-78
2021/05/11 05:55:31;;;;;;;0.80;0.30;;;19.70;91.70;;;;;;4997322;28;20025;-78
2021/05/11 05:57:59;;;;;;;0.57;0.15;;;19.60;92.20;;;;;;4996851;28;20420;-78
2021/05/11 06:00:26;;;;;;;4.57;0.20;;;19.60;92.10;;;;;;4994750;28;20104;-77
2021/05/11 06:02:55;;;;;;;3.78;0.38;;;19.60;92.20;;;;;;4998251;28;20027;-78
2021/05/11 06:05:23;;;;;;;1.65;0.30;;;19.50;92.20;;;;;;4994827;28;20096;-77
2021/05/11 06:07:54;;;;;;;1.15;0.40;;;19.60;92.70;;;;;;5000803;28;20065;-77
2021/05/11 06:10:25;;;;;;;0.20;0.10;;;19.40;92.10;;;;;;5000635;28;20552;-76
2021/05/11 06:13:06;;;;;;;1.67;0.30;;;19.50;92.80;;;;;;4998697;28;20473;-77
2021/05/11 06:18:20;;;;;;;2.13;0.28;;;19.40;92.50;;;;;;5000276;28;20057;-76
2021/05/11 06:20:48;;;;;;;2.25;0.30;;;19.40;93.00;;;;;;5000425;28;20034;-77
2021/05/11 06:23:18;;;;;;;5.35;0.30;;;19.30;92.70;;;;;;5000391;28;20028;-77
2021/05/11 06:25:45;;;;;;;43.60;9.88;;;19.30;93.00;;;;;;4998188;28;20029;-77
2021/05/11 06:28:13;;;;;;;6.00;0.95;;;19.30;92.40;;;;;;5002666;28;20476;-78
2021/05/11 06:30:40;;;;;;;1.52;0.40;;;19.20;92.20;;;;;;4999156;28;20477;-79
2021/05/11 06:33:08;;;;;;;2.38;0.65;;;19.20;92.40;;;;;;5002416;28;20114;-78
2021/05/11 06:35:35;;;;;;;2.45;1.30;;;19.20;92.00;;;;;;4996944;28;20051;-78
2021/05/11 06:38:03;;;;;;;2.15;0.70;;;19.20;92.30;;;;;;5000487;28;20026;-73
2021/05/11 06:40:31;;;;;;;0.57;0.30;;;19.40;92.00;;;;;;5003600;28;20034;-79
2021/05/11 06:42:59;;;;;;;0.93;0.40;;;19.50;91.70;;;;;;5003458;28;20034;-81
2021/05/11 06:48:18;;;;;;;2.63;0.47;;;19.80;91.20;;;;;;4995942;28;20069;-78
2021/05/11 06:53:39;;;;;;;2.67;1.75;;;19.80;90.80;;;;;;4996813;28;20421;-78
2021/05/11 06:56:09;;;;;;;3.30;1.40;;;19.90;90.90;;;;;;5000751;28;20453;-77
2021/05/11 06:58:37;;;;;;;1.58;0.90;;;19.90;90.60;;;;;;4996634;28;20705;-77
2021/05/11 07:01:05;;;;;;;2.40;0.68;;;19.90;90.70;;;;;;4998551;28;20045;-77
2021/05/11 07:03:33;;;;;;;0.80;0.40;;;20.00;90.60;;;;;;4999688;28;20035;-77
2021/05/11 07:06:01;;;;;;;2.17;0.50;;;19.90;91.10;;;;;;4999345;28;20465;-79
2021/05/11 07:09:08;;;;;;;0.60;0.32;;;19.70;90.90;;;;;;4997993;28;20105;-77
2021/05/11 07:13:05;;;;;;;2.38;0.40;;;19.40;91.90;;;;;;4994681;28;20081;-79
2021/05/11 07:14:12;;;;;;;1.52;0.52;;;19.20;91.90;;;;;;5003282;28;20026;-79
2021/05/11 07:16:40;;;;;;;1.25;0.40;;;18.90;92.50;;;;;;5005378;28;20443;-79
2021/05/11 07:19:07;;;;;;;0.88;0.30;;;18.80;93.10;;;;;;5003964;28;20026;-79
2021/05/11 07:21:35;;;;;;;1.60;0.63;;;18.70;92.80;;;;;;5002797;28;20030;-79
2021/05/11 07:24:03;;;;;;;1.30;0.50;;;18.50;93.40;;;;;;4989740;28;20023;-79
2021/05/11 07:26:31;;;;;;;1.50;1.25;;;18.40;93.70;;;;;;4998764;28;20093;-79
2021/05/11 07:29:21;;;;;;;2.85;0.80;;;18.30;93.90;;;;;;5001834;28;20368;-78
2021/05/11 07:31:49;;;;;;;0.80;0.40;;;18.20;93.50;;;;;;5000703;28;20050;-78
2021/05/11 07:34:17;;;;;;;3.60;0.63;;;18.20;93.70;;;;;;4998217;28;20026;-78
2021/05/11 07:36:46;;;;;;;1.63;0.38;;;18.20;93.80;;;;;;5001067;28;20045;-79
2021/05/11 07:39:13;;;;;;;1.15;0.50;;;18.10;93.50;;;;;;5000391;28;20026;-79
2021/05/11 07:41:41;;;;;;;4.43;0.40;;;18.20;93.20;;;;;;5000013;28;20030;-79
2021/05/11 07:44:09;;;;;;;0.75;0.50;;;18.20;93.40;;;;;;4996894;28;20089;-79
2021/05/11 08:05:21;;;;;;;0.93;0.40;;;17.80;94.80;;;;;;5000447;28;20026;-78
2021/05/11 08:16:06;;;;;;;1.83;0.75;;;17.80;95.20;;;;;;5001197;28;20084;-79
2021/05/11 08:18:43;;;;;;;2.20;1.13;;;17.70;95.30;;;;;;5001071;28;20033;-79
2021/05/11 08:29:29;;;;;;;7.40;3.33;;;17.70;95.90;;;;;;4999041;28;20088;-78
2021/05/11 08:31:56;;;;;;;6.20;4.05;;;17.80;96.00;;;;;;4998717;28;20026;-78
2021/05/11 08:34:24;;;;;;;3.28;1.25;;;17.80;95.70;;;;;;4996321;28;20073;-78
2021/05/11 08:36:51;;;;;;;3.38;0.73;;;17.80;95.90;;;;;;5004178;28;20080;-79
2021/05/11 08:39:20;;;;;;;3.05;1.08;;;17.70;95.80;;;;;;4999486;28;20038;-78
2021/05/11 08:41:47;;;;;;;2.90;0.73;;;17.70;96.00;;;;;;4998305;28;20041;-78
2021/05/11 08:44:17;;;;;;;3.85;0.63;;;17.70;96.20;;;;;;4996862;28;20058;-79
2021/05/11 08:46:45;;;;;;;2.90;1.05;;;17.70;96.50;;;;;;5002484;28;20033;-78
2021/05/11 08:49:13;;;;;;;1.33;0.65;;;17.70;96.50;;;;;;4997618;28;20045;-79
2021/05/11 08:51:50;;;;;;;2.25;1.27;;;17.70;96.40;;;;;;5002168;28;20053;-78
2021/05/11 09:08:56;;;;;;;3.28;1.17;;;17.70;96.40;;;;;;5000727;28;20037;-78
2021/05/11 09:28:02;;;;;;;4.70;1.58;;;17.70;97.00;;;;;;4999901;28;20451;-79
2021/05/11 09:31:18;;;;;;;2.50;1.27;;;17.70;97.00;;;;;;5002938;28;20038;-79
2021/05/11 09:33:50;;;;;;;3.20;1.38;;;17.60;96.90;;;;;;5003221;28;20148;-78
2021/05/11 09:45:27;;;;;;;2.08;0.70;;;17.60;97.50;;;;;;5000367;28;20064;-78
2021/05/11 10:48:26;;;;;;;3.10;1.52;;;17.20;98.80;;;;;;4994264;28;20013;-78
2021/05/11 10:51:23;;;;;;;3.75;1.48;;;17.20;98.90;;;;;;4994760;28;20046;-78
2021/05/11 10:54:03;;;;;;;1.35;0.80;;;17.10;98.70;;;;;;4996054;28;20038;-77
2021/05/11 10:56:36;;;;;;;1.33;0.88;;;17.00;98.80;;;;;;4997781;28;20018;-79
2021/05/11 10:59:12;;;;;;;2.10;1.05;;;17.00;99.00;;;;;;4992234;28;20045;-79
2021/05/11 11:01:43;;;;;;;1.70;0.75;;;16.90;98.90;;;;;;4993875;28;20116;-80
2021/05/11 11:04:15;;;;;;;2.70;0.90;;;16.80;99.00;;;;;;4998816;28;20035;-79
2021/05/11 11:07:02;;;;;;;2.05;0.52;;;16.80;98.90;;;;;;4998847;28;20026;-79
2021/05/11 11:09:31;;;;;;;3.92;1.13;;;16.70;99.00;;;;;;4995207;28;20033;-80
2021/05/11 11:12:01;;;;;;;1.85;0.60;;;16.70;99.20;;;;;;4998071;28;20468;-79
2021/05/11 11:14:35;;;;;;;0.80;0.57;;;16.70;99.20;;;;;;4991398;28;20540;-79
2021/05/11 11:17:05;;;;;;;1.50;0.65;;;16.60;99.30;;;;;;4993143;28;20488;-79
2021/05/11 11:19:33;;;;;;;3.58;0.88;;;16.60;99.30;;;;;;4996430;28;20044;-79
2021/05/11 11:24:54;;;;;;;6.47;1.23;;;16.50;99.60;;;;;;5001330;28;20069;-79
2021/05/11 11:27:32;;;;;;;4.10;1.40;;;16.50;99.70;;;;;;4997592;28;20061;-81
2021/05/11 11:30:12;;;;;;;2.10;1.52;;;16.50;99.60;;;;;;4993171;28;20054;-81
2021/05/11 11:32:40;;;;;;;3.55;1.42;;;16.40;99.60;;;;;;4991866;28;20026;-80
2021/05/11 11:35:10;;;;;;;2.03;1.55;;;16.40;99.70;;;;;;5007240;28;20030;-80
2021/05/11 11:37:38;;;;;;;5.07;2.53;;;16.30;99.60;;;;;;4994491;28;20030;-81
2021/05/11 11:40:11;;;;;;;4.72;2.20;;;16.30;99.60;;;;;;4997413;28;20076;-82
2021/05/11 11:42:41;;;;;;;3.85;1.95;;;16.30;99.50;;;;;;4993722;28;20395;-80
2021/05/11 11:45:12;;;;;;;4.47;2.10;;;16.20;99.50;;;;;;4993528;28;20050;-79
2021/05/11 11:47:50;;;;;;;3.80;1.00;;;16.20;99.20;;;;;;4995895;28;20117;-78
2021/05/11 11:50:18;;;;;;;3.42;1.85;;;16.20;99.10;;;;;;4997914;28;20046;-78
2021/05/11 11:58:26;;;;;;;5.47;1.67;;;16.00;99.10;;;;;;4996866;28;20044;-78
2021/05/11 12:00:53;;;;;;;5.00;1.35;;;16.00;99.10;;;;;;4999314;28;20026;-78
2021/05/11 12:03:22;;;;;;;3.00;1.48;;;15.90;99.10;;;;;;4992225;28;20092;-78
2021/05/11 12:05:58;;;;;;;2.50;1.88;;;15.90;99.40;;;;;;4994336;28;20038;-79
2021/05/11 12:08:26;;;;;;;;;;;15.90;99.10;;;;;;4991212;28;20025;-78
2021/05/11 12:11:00;;;;;;;6.40;1.58;;;15.80;98.80;;;;;;5001911;28;19936;-80
2021/05/11 12:13:36;;;;;;;1.73;1.48;;;15.80;98.90;;;;;;4994415;28;20027;-80
2021/05/11 12:16:11;;;;;;;2.53;1.48;;;15.70;99.00;;;;;;4992467;28;20022;-79
2021/05/11 12:19:09;;;;;;;3.08;1.13;;;15.70;99.00;;;;;;4999896;28;20125;-77
2021/05/11 12:22:04;;;;;;;4.93;1.33;;;15.60;99.10;;;;;;4993107;28;20113;-80
2021/05/11 12:24:37;;;;;;;4.10;1.60;;;15.60;99.00;;;;;;4992947;28;20123;-81
2021/05/11 12:27:16;;;;;;;2.22;1.40;;;15.50;99.00;;;;;;4992215;28;20018;-80
2021/05/11 12:30:03;;;;;;;4.90;1.33;;;15.50;99.10;;;;;;4993516;28;20030;-78
2021/05/11 12:32:34;;;;;;;2.25;1.35;;;15.50;99.00;;;;;;4991034;28;20052;-81
2021/05/11 12:35:08;;;;;;;3.58;1.00;;;15.40;99.00;;;;;;4995429;28;20033;-79
2021/05/11 12:37:56;;;;;;;2.95;1.15;;;15.40;99.10;;;;;;4994915;28;20025;-79
2021/05/11 12:42:55;;;;;;;2.42;0.68;;;15.30;99.00;;;;;;4993756;28;20021;-78
2021/05/11 12:45:23;;;;;;;2.78;0.70;;;15.20;98.90;;;;;;5000139;28;20489;-80
2021/05/11 12:47:53;;;;;;;3.65;1.10;;;15.20;99.20;;;;;;4997003;28;20034;-79
2021/05/11 12:50:27;;;;;;;1.15;0.70;;;15.20;99.20;;;;;;4996165;28;20049;-80
2021/05/11 12:52:58;;;;;;;2.95;0.70;;;15.10;99.20;;;;;;4987623;28;20018;-79
2021/05/11 13:02:02;;;;;;;2.15;0.50;;;15.00;99.20;;;;;;4997286;28;20129;-79
2021/05/11 13:15:31;;;;;;;1.05;0.50;;;14.80;99.20;;;;;;4992810;28;20563;-77
2021/05/11 13:26:15;;;;;;;1.38;0.50;;;14.70;99.60;;;;;;4970763;28;20042;-77
2021/05/11 13:28:53;;;;;;;2.70;0.50;;;14.70;99.50;;;;;;4993008;28;20388;-78
2021/05/11 13:36:25;;;;;;;1.25;0.68;;;14.60;99.70;;;;;;4992797;28;20033;-78
2021/05/11 13:38:53;;;;;;;0.57;0.50;;;14.50;99.60;;;;;;5012500;28;20037;-78
2021/05/11 13:41:20;;;;;;;3.25;0.40;;;14.50;99.90;;;;;;4997828;28;20034;-76
2021/05/11 13:43:47;;;;;;;1.75;0.40;;;14.40;99.90;;;;;;4999528;28;20029;-76
2021/05/11 13:46:16;;;;;;;5.25;0.60;;;14.40;99.90;;;;;;4998871;28;20384;-78
2021/05/11 13:48:46;;;;;;;1.08;0.45;;;14.40;99.90;;;;;;4994891;28;20158;-75
2021/05/11 13:51:17;;;;;;;2.42;0.82;;;14.40;99.90;;;;;;4996771;28;20038;-78
2021/05/11 13:53:48;;;;;;;1.10;0.52;;;14.40;99.90;;;;;;4991280;28;20642;-76
2021/05/11 14:04:02;;;;;;;1.50;0.60;;;14.50;99.90;;;;;;4989426;28;20033;-78
2021/05/11 14:06:30;;;;;;;1.00;0.52;;;14.60;99.90;;;;;;4996320;28;20124;-78
2021/05/11 14:08:58;;;;;;;2.60;1.00;;;14.60;99.90;;;;;;4998586;28;20022;-79
2021/05/11 14:11:27;;;;;;;3.00;1.15;;;14.60;99.90;;;;;;4998617;28;20521;-78
2021/05/11 14:14:02;;;;;;;1.85;0.80;;;14.60;99.50;;;;;;4991638;28;20034;-78
2021/05/11 14:16:30;;;;;;;1.48;0.50;;;14.60;99.60;;;;;;4993132;28;20022;-76
2021/05/11 14:18:58;;;;;;;4.35;1.05;;;14.60;99.50;;;;;;4995068;28;20045;-77
2021/05/11 14:21:26;;;;;;;1.77;0.55;;;14.60;99.40;;;;;;4998582;28;20042;-77
2021/05/11 14:23:58;;;;;;;1.58;0.40;;;14.60;99.40;;;;;;4989885;28;20033;-76
2021/05/11 14:26:26;;;;;;;2.05;0.57;;;14.70;99.20;;;;;;4975937;28;20481;-78
2021/05/11 14:28:56;;;;;;;1.25;0.60;;;14.60;99.20;;;;;;4999246;28;20092;-76
2021/05/11 14:31:26;;;;;;;1.10;0.50;;;14.60;99.30;;;;;;5000378;28;20019;-76
2021/05/11 14:33:57;;;;;;;1.90;0.98;;;14.60;99.50;;;;;;4999817;28;20033;-78
2021/05/11 14:36:24;;;;;;;1.65;0.43;;;14.60;99.70;;;;;;4998371;28;20034;-78
2021/05/11 14:38:54;;;;;;;1.17;0.60;;;14.70;99.90;;;;;;4997635;28;20477;-78
2021/05/11 14:41:23;;;;;;;3.10;0.60;;;14.70;99.90;;;;;;4999547;28;20034;-80
2021/05/11 14:43:50;;;;;;;3.38;0.80;;;14.80;99.80;;;;;;5000127;28;20029;-78
2021/05/11 14:46:18;;;;;;;1.63;1.00;;;14.70;99.70;;;;;;5001566;28;20135;-79
2021/05/11 14:48:45;;;;;;;0.93;0.75;;;14.70;99.80;;;;;;4993989;28;20031;-79
2021/05/11 14:51:13;;;;;;;2.10;0.90;;;14.60;99.90;;;;;;5003740;28;20034;-78
2021/05/11 14:53:41;;;;;;;1.13;0.60;;;14.60;99.90;;;;;;5001411;28;20093;-78
2021/05/11 14:56:11;;;;;;;1.70;1.40;;;14.70;99.90;;;;;;4998188;28;20031;-77
2021/05/11 14:58:39;;;;;;;2.92;1.65;;;14.70;99.90;;;;;;4999112;28;20044;-78
2021/05/11 15:01:10;;;;;;;3.38;1.77;;;14.60;99.90;;;;;;5000057;28;20077;-77
2021/05/11 15:03:37;;;;;;;2.42;1.35;;;14.70;99.90;;;;;;5006978;28;20017;-77
2021/05/11 15:06:07;;;;;;;7.28;2.10;;;14.70;99.90;;;;;;4993647;28;20527;-77
2021/05/11 15:08:34;;;;;;;5.55;1.17;;;14.70;99.90;;;;;;4998236;28;20050;-77
2021/05/11 15:11:02;;;;;;;4.50;0.77;;;14.70;99.60;;;;;;4997611;28;20026;-77
2021/05/11 15:13:29;;;;;;;1.42;0.90;;;14.70;99.50;;;;;;5004831;28;20508;-77
2021/05/11 15:15:58;;;;;;;1.60;0.88;;;14.70;99.50;;;;;;5004129;28;20018;-77
2021/05/11 15:18:26;;;;;;;1.10;0.77;;;14.70;99.40;;;;;;5001096;28;20182;-77
2021/05/11 15:20:54;;;;;;;0.70;0.50;;;14.80;99.40;;;;;;4997213;28;20038;-77
2021/05/11 15:23:24;;;;;;;1.00;0.60;;;14.70;99.00;;;;;;5008391;28;20747;-79
2021/05/11 15:25:56;;;;;;;0.70;0.55;;;14.80;99.00;;;;;;5004087;28;20034;-78
2021/05/11 15:28:24;;;;;;;1.95;0.70;;;14.80;98.90;;;;;;5001114;28;20022;-79
2021/05/11 15:30:52;;;;;;;1.38;0.60;;;14.80;98.80;;;;;;5001391;28;20026;-79
2021/05/11 15:33:21;;;;;;;1.25;0.80;;;14.80;98.90;;;;;;5003916;28;20042;-78
2021/05/11 15:35:57;;;;;;;2.55;0.40;;;14.70;98.70;;;;;;5001224;28;20037;-78
2021/05/11 15:38:30;;;;;;;1.95;0.75;;;14.70;98.60;;;;;;5001503;28;20030;-78
2021/05/11 15:41:02;;;;;;;2.35;0.73;;;14.70;98.40;;;;;;4998331;28;20034;-78
2021/05/11 15:43:31;;;;;;;0.65;0.40;;;14.70;98.40;;;;;;5008065;28;20157;-78
2021/05/11 15:45:59;;;;;;;1.42;0.45;;;14.70;98.20;;;;;;4998297;28;20029;-78
2021/05/11 15:48:26;;;;;;;0.60;0.43;;;14.70;98.00;;;;;;4999750;28;20038;-79
2021/05/11 15:50:57;;;;;;;1.30;0.35;;;14.70;97.70;;;;;;5000909;28;20050;-79
2021/05/11 15:53:25;;;;;;;0.47;0.40;;;14.70;97.40;;;;;;4999487;28;20571;-79
2021/05/11 15:55:52;;;;;;;0.70;0.40;;;14.70;97.20;;;;;;5004787;28;20057;-79
2021/05/11 15:58:21;;;;;;;1.02;0.40;;;14.70;97.20;;;;;;4998120;28;20109;-78
2021/05/11 16:00:53;;;;;;;2.75;0.50;;;14.70;96.80;;;;;;5000191;28;20054;-79
2021/05/11 16:03:23;;;;;;;0.82;0.38;;;14.80;97.00;;;;;;4998468;28;20026;-78
2021/05/11 16:05:51;;;;;;;0.45;0.30;;;14.80;96.80;;;;;;4998285;28;20121;-79
2021/05/11 16:08:19;;;;;;;0.90;0.40;;;14.80;96.80;;;;;;5000287;28;20099;-77
2021/05/11 16:10:47;;;;;;;0.70;0.30;;;14.80;96.50;;;;;;5003012;28;20034;-78
2021/05/11 16:13:20;;;;;;;0.82;0.50;;;14.80;96.50;;;;;;5005587;28;20022;-76
2021/05/11 16:15:50;;;;;;;0.63;0.40;;;14.80;96.30;;;;;;4982232;28;20026;-78
2021/05/11 16:18:19;;;;;;;1.50;0.50;;;14.80;96.20;;;;;;4995347;28;20019;-77
2021/05/11 16:20:46;;;;;;;0.60;0.40;;;14.80;96.60;;;;;;4998041;28;20038;-78
2021/05/11 16:23:14;;;;;;;1.00;0.57;;;14.80;96.30;;;;;;5001413;28;20188;-77
2021/05/11 16:25:41;;;;;;;0.30;0.30;;;14.80;96.00;;;;;;4996302;28;20389;-77
2021/05/11 16:28:11;;;;;;;0.82;0.30;;;14.80;95.90;;;;;;4997050;28;20018;-78
2021/05/11 16:30:40;;;;;;;0.90;0.40;;;14.80;95.90;;;;;;4992926;28;20540;-78
2021/05/11 16:33:10;;;;;;;0.90;0.65;;;14.70;95.80;;;;;;4998195;28;20109;-78
2021/05/11 16:35:38;;;;;;;0.60;0.40;;;14.70;95.90;;;;;;5000256;28;20038;-78
2021/05/11 16:38:05;;;;;;;0.40;0.20;;;14.70;96.00;;;;;;5001700;28;20046;-77
2021/05/11 16:40:33;;;;;;;1.90;0.90;;;14.60;96.10;;;;;;4999049;28;20042;-78
2021/05/11 16:43:00;;;;;;;0.40;0.38;;;14.70;96.10;;;;;;4996343;28;20062;-77
2021/05/11 16:45:29;;;;;;;1.83;0.38;;;14.70;95.70;;;;;;5001853;28;20037;-77
2021/05/11 16:47:59;;;;;;;1.15;0.43;;;14.70;95.60;;;;;;5000001;28;20081;-77
2021/05/11 16:50:31;;;;;;;0.73;0.40;;;14.70;95.40;;;;;;5004870;28;20050;-78
2021/05/11 16:53:01;;;;;;;0.30;0.25;;;14.70;95.30;;;;;;4993691;28;20097;-77
2021/05/11 16:55:29;;;;;;;0.55;0.30;;;14.70;95.30;;;;;;4997528;28;20034;-78
2021/05/11 16:57:58;;;;;;;3.53;1.52;;;14.70;95.20;;;;;;5002609;28;20374;-79
2021/05/11 17:00:27;;;;;;;1.08;0.40;;;14.70;95.10;;;;;;4995348;28;20036;-78
2021/05/11 17:02:55;;;;;;;1.80;0.28;;;14.80;95.20;;;;;;4999221;28;20121;-77
2021/05/11 17:05:23;;;;;;;0.70;0.40;;;14.80;95.00;;;;;;4996949;28;20053;-77
2021/05/11 17:07:51;;;;;;;0.68;0.40;;;14.80;95.30;;;;;;5000145;28;20056;-77